createdAt,value
2022-08-23T00:02:27.688Z,87.60
2022-08-23T00:05:08.901Z,87.60
2022-08-23T00:07:43.945Z,87.70
2022-08-23T00:10:16.291Z,87.80
2022-08-23T00:12:46.024Z,87.70
2022-08-23T00:15:16.988Z,87.90
2022-08-23T00:17:44.045Z,88.00
2022-08-23T00:20:15.595Z,87.90
2022-08-23T00:22:42.734Z,87.90
2022-08-23T00:25:12.934Z,87.90
2022-08-23T00:27:40.308Z,88.00
2022-08-23T00:30:12.949Z,88.10
2022-08-23T00:32:41.382Z,88.20
2022-08-23T00:35:12.010Z,88.20
2022-08-23T00:37:39.942Z,88.10
2022-08-23T00:40:11.128Z,88.10
2022-08-23T00:43:03.591Z,88.10
2022-08-23T00:46:04.483Z,88.20
2022-08-23T00:48:34.797Z,88.20
2022-08-23T00:51:24.683Z,88.40
2022-08-23T00:54:00.625Z,88.30
2022-08-23T00:56:33.189Z,88.60
2022-08-23T00:59:00.936Z,88.40
2022-08-23T01:01:28.741Z,88.40
2022-08-23T01:04:04.511Z,88.30
2022-08-23T01:06:58.969Z,88.20
2022-08-23T01:09:26.480Z,88.20
2022-08-23T01:12:19.133Z,88.30
2022-08-23T01:15:36.928Z,88.40
2022-08-23T01:18:08.825Z,88.40
2022-08-23T01:20:53.268Z,88.60
2022-08-23T01:23:49.180Z,88.50
2022-08-23T01:26:21.977Z,88.40
2022-08-23T01:28:51.773Z,88.50
2022-08-23T01:31:20.528Z,88.60
2022-08-23T01:33:58.605Z,88.70
2022-08-23T01:36:27.019Z,88.70
2022-08-23T01:38:54.562Z,88.60
2022-08-23T01:41:22.672Z,88.70
2022-08-23T01:43:51.380Z,88.70
2022-08-23T01:46:23.554Z,88.70
2022-08-23T01:48:52.125Z,88.80
2022-08-23T01:51:21.440Z,88.70
2022-08-23T01:53:50.614Z,88.70
2022-08-23T01:56:38.038Z,88.80
2022-08-23T01:59:09.899Z,88.90
2022-08-23T02:01:42.378Z,89.90
2022-08-23T02:04:09.638Z,88.90
2022-08-23T02:06:36.880Z,88.90
2022-08-23T02:09:17.257Z,89.00
2022-08-23T02:11:47.481Z,89.10
2022-08-23T02:14:19.523Z,89.10
2022-08-23T02:17:03.983Z,89.00
2022-08-23T02:19:38.679Z,89.00
2022-08-23T02:22:08.367Z,88.80
2022-08-23T02:24:40.433Z,89.00
2022-08-23T02:27:08.591Z,89.20
2022-08-23T02:29:40.039Z,89.90
2022-08-23T02:32:12.559Z,89.10
2022-08-23T02:34:41.921Z,89.00
2022-08-23T02:37:11.269Z,89.10
2022-08-23T02:39:39.679Z,89.20
2022-08-23T02:42:11.574Z,89.10
2022-08-23T02:44:41.884Z,89.20
2022-08-23T02:47:09.299Z,89.30
2022-08-23T02:49:39.301Z,89.20
2022-08-23T02:52:07.449Z,89.20
2022-08-23T02:54:36.219Z,89.30
2022-08-23T02:57:03.838Z,89.30
2022-08-23T02:59:31.735Z,89.10
2022-08-23T03:01:59.674Z,89.20
2022-08-23T03:04:32.168Z,89.30
2022-08-23T03:06:59.230Z,89.20
2022-08-23T03:09:27.129Z,89.30
2022-08-23T03:11:54.232Z,89.30
2022-08-23T03:14:24.710Z,89.30
2022-08-23T03:16:52.215Z,89.30
2022-08-23T03:19:21.216Z,89.20
2022-08-23T03:21:48.460Z,89.00
2022-08-23T03:24:19.001Z,89.20
2022-08-23T03:26:46.693Z,89.20
2022-08-23T03:29:17.673Z,89.20
2022-08-23T03:32:00.425Z,90.00
2022-08-23T03:34:29.413Z,89.20
2022-08-23T03:36:57.665Z,89.30
2022-08-23T03:39:24.920Z,89.40
2022-08-23T03:41:52.800Z,89.50
2022-08-23T03:44:20.252Z,89.50
2022-08-23T03:46:49.097Z,89.50
2022-08-23T03:49:16.299Z,89.60
2022-08-23T03:51:52.394Z,89.50
2022-08-23T03:54:20.648Z,89.50
2022-08-23T03:57:03.160Z,89.30
2022-08-23T03:59:36.533Z,89.50
2022-08-23T04:02:07.940Z,89.40
2022-08-23T04:04:35.637Z,89.50
2022-08-23T04:07:23.113Z,89.60
2022-08-23T04:09:55.330Z,89.40
2022-08-23T04:12:25.133Z,89.70
2022-08-23T04:14:53.728Z,90.00
2022-08-23T04:17:22.168Z,90.00
2022-08-23T04:19:50.832Z,90.00
2022-08-23T04:22:20.523Z,90.00
2022-08-23T04:24:48.451Z,90.10
2022-08-23T04:27:16.961Z,90.10
2022-08-23T04:29:45.845Z,90.10
2022-08-23T04:32:14.839Z,90.10
2022-08-23T04:34:53.429Z,90.10
2022-08-23T04:37:20.952Z,90.10
2022-08-23T04:40:07.152Z,90.10
2022-08-23T04:42:41.067Z,90.10
2022-08-23T04:45:09.176Z,90.10
2022-08-23T04:47:41.897Z,90.10
2022-08-23T04:50:11.193Z,90.10
2022-08-23T04:52:56.762Z,90.10
2022-08-23T04:55:24.432Z,90.10
2022-08-23T04:58:01.741Z,90.10
2022-08-23T05:00:33.917Z,90.20
2022-08-23T05:03:02.314Z,90.20
2022-08-23T05:05:29.808Z,90.20
2022-08-23T05:07:56.831Z,90.20
2022-08-23T05:10:24.550Z,90.20
2022-08-23T05:12:54.940Z,90.20
2022-08-23T05:15:22.981Z,90.20
2022-08-23T05:17:57.689Z,90.20
2022-08-23T05:20:24.904Z,90.20
2022-08-23T05:22:51.972Z,90.30
2022-08-23T05:25:52.408Z,90.30
2022-08-23T05:28:45.188Z,90.20
2022-08-23T05:31:23.087Z,90.20
2022-08-23T05:33:52.935Z,90.20
2022-08-23T05:36:47.643Z,90.20
2022-08-23T05:39:28.737Z,90.20
2022-08-23T05:42:09.083Z,90.20
2022-08-23T05:44:37.786Z,90.20
2022-08-23T05:47:11.147Z,90.20
2022-08-23T05:49:59.342Z,90.20
2022-08-23T05:52:29.772Z,90.30
2022-08-23T05:54:57.026Z,90.30
2022-08-23T05:57:42.627Z,90.30
2022-08-23T06:00:14.313Z,90.30
2022-08-23T06:02:49.497Z,90.30
2022-08-23T06:05:19.641Z,90.30
2022-08-23T06:07:49.360Z,90.50
2022-08-23T06:10:20.489Z,90.30
2022-08-23T06:12:53.326Z,90.40
2022-08-23T06:15:22.353Z,90.40
2022-08-23T06:17:49.658Z,90.40
2022-08-23T06:20:17.256Z,90.30
2022-08-23T06:23:02.187Z,90.30
2022-08-23T06:25:29.521Z,90.30
2022-08-23T06:28:07.030Z,90.40
2022-08-23T06:30:39.255Z,90.40
2022-08-23T06:33:13.943Z,90.40
2022-08-23T06:36:13.145Z,90.40
2022-08-23T06:38:57.040Z,90.40
2022-08-23T06:41:46.022Z,90.40
2022-08-23T06:44:28.519Z,90.40
2022-08-23T06:47:02.689Z,90.40
2022-08-23T06:49:29.890Z,90.50
2022-08-23T06:52:06.084Z,90.40
2022-08-23T06:55:08.599Z,90.40
2022-08-23T06:57:52.276Z,90.50
2022-08-23T07:00:38.020Z,90.40
2022-08-23T07:03:24.109Z,90.40
2022-08-23T07:06:23.660Z,90.50
2022-08-23T07:08:51.563Z,90.50
2022-08-23T07:11:21.624Z,90.50
2022-08-23T07:13:49.213Z,90.50
2022-08-23T07:16:18.264Z,90.70
2022-08-23T07:18:49.562Z,90.70
2022-08-23T07:21:19.560Z,90.80
2022-08-23T07:23:46.846Z,90.80
2022-08-23T07:26:16.557Z,90.80
2022-08-23T07:28:44.572Z,90.70
2022-08-23T07:31:23.567Z,90.90
2022-08-23T07:33:52.038Z,90.60
2022-08-23T07:36:23.796Z,90.60
2022-08-23T07:38:53.130Z,90.60
2022-08-23T07:41:21.169Z,90.60
2022-08-23T07:43:49.076Z,90.60
2022-08-23T07:46:16.573Z,90.70
2022-08-23T07:48:53.957Z,90.70
2022-08-23T07:51:31.691Z,90.70
2022-08-23T07:54:00.097Z,90.60
2022-08-23T07:56:27.065Z,90.70
2022-08-23T07:59:07.868Z,90.70
2022-08-23T08:01:43.679Z,90.70
2022-08-23T08:04:12.503Z,90.60
2022-08-23T08:06:56.131Z,90.50
2022-08-23T08:09:34.790Z,90.50
2022-08-23T08:12:02.143Z,90.50
2022-08-23T08:14:31.765Z,90.40
2022-08-23T08:17:00.641Z,90.50
2022-08-23T08:19:46.750Z,90.50
2022-08-23T08:22:29.252Z,90.50
2022-08-23T08:25:12.068Z,90.50
2022-08-23T08:27:42.893Z,90.60
2022-08-23T08:30:11.980Z,90.60
2022-08-23T08:32:46.939Z,90.60
2022-08-23T08:35:15.325Z,90.70
2022-08-23T08:37:42.732Z,90.80
2022-08-23T08:40:11.630Z,90.80
2022-08-23T08:43:19.933Z,90.80
2022-08-23T08:46:25.925Z,90.70
2022-08-23T08:48:57.901Z,90.90
2022-08-23T08:52:14.976Z,91.00
2022-08-23T08:54:48.145Z,91.10
2022-08-23T08:57:22.666Z,91.10
2022-08-23T09:00:02.494Z,91.00
2022-08-23T09:02:36.342Z,91.10
2022-08-23T09:05:31.550Z,91.00
2022-08-23T09:08:41.718Z,90.90
2022-08-23T09:11:27.372Z,91.00
2022-08-23T09:13:57.267Z,90.90
2022-08-23T09:16:30.580Z,90.90
2022-08-23T09:19:00.135Z,90.80
2022-08-23T09:21:28.334Z,90.70
2022-08-23T09:24:00.228Z,90.60
2022-08-23T09:26:39.101Z,90.60
2022-08-23T09:29:28.976Z,90.70
2022-08-23T09:32:02.597Z,90.60
2022-08-23T09:34:34.732Z,90.70
2022-08-23T09:37:22.876Z,90.60
2022-08-23T09:39:57.190Z,90.60
2022-08-23T09:42:31.471Z,90.60
2022-08-23T09:44:59.917Z,90.70
2022-08-23T09:47:44.375Z,90.90
2022-08-23T09:50:23.218Z,90.80
2022-08-23T09:52:55.743Z,90.70
2022-08-23T09:55:40.160Z,90.90
2022-08-23T09:58:18.799Z,90.90
2022-08-23T10:01:07.375Z,90.90
2022-08-23T10:03:34.893Z,91.00
2022-08-23T10:06:31.413Z,91.10
2022-08-23T10:09:05.708Z,91.00
2022-08-23T10:11:41.969Z,90.90
2022-08-23T10:14:17.194Z,90.80
2022-08-23T10:17:08.153Z,91.10
2022-08-23T10:20:05.578Z,90.40
2022-08-23T10:23:06.264Z,90.50
2022-08-23T10:26:00.001Z,90.50
2022-08-23T10:29:14.497Z,90.50
2022-08-23T10:32:18.110Z,90.50
2022-08-23T10:35:20.702Z,90.50
2022-08-23T10:38:19.978Z,90.60
2022-08-23T10:41:14.255Z,90.60
2022-08-23T10:44:13.892Z,90.60
2022-08-23T10:46:55.273Z,90.60
2022-08-23T10:49:24.291Z,90.70
2022-08-23T10:51:52.650Z,90.80
2022-08-23T10:54:45.985Z,90.80
2022-08-23T10:57:20.376Z,90.80
2022-08-23T10:59:50.725Z,90.80
2022-08-23T11:02:34.622Z,90.90
2022-08-23T11:05:28.212Z,90.80
2022-08-23T11:08:07.273Z,90.70
2022-08-23T11:10:39.262Z,90.60
2022-08-23T11:13:13.338Z,90.60
2022-08-23T11:16:21.468Z,90.50
2022-08-23T11:18:51.329Z,90.60
2022-08-23T11:21:33.650Z,90.60
2022-08-23T11:24:06.110Z,90.60
2022-08-23T11:26:37.993Z,90.60
2022-08-23T11:29:10.676Z,90.60
2022-08-23T11:31:48.807Z,90.60
2022-08-23T11:34:42.781Z,90.70
2022-08-23T11:37:19.963Z,90.70
2022-08-23T11:39:57.741Z,90.80
2022-08-23T11:42:30.026Z,91.00
2022-08-23T11:44:58.124Z,91.00
2022-08-23T11:47:40.573Z,91.10
2022-08-23T11:50:33.911Z,91.00
2022-08-23T11:53:26.196Z,91.00
2022-08-23T11:56:28.388Z,90.90
2022-08-23T11:59:26.220Z,91.00
2022-08-23T12:01:53.383Z,90.90
2022-08-23T12:04:47.377Z,91.10
2022-08-23T12:07:14.491Z,91.00
2022-08-23T12:09:41.699Z,90.90
2022-08-23T12:12:36.159Z,91.00
2022-08-23T12:15:12.023Z,90.80
2022-08-23T12:17:42.113Z,90.90
2022-08-23T12:20:16.468Z,90.90
2022-08-23T12:22:59.618Z,90.80
2022-08-23T12:25:29.530Z,90.80
2022-08-23T12:28:27.531Z,90.80
2022-08-23T12:31:20.532Z,90.70
2022-08-23T12:34:21.308Z,90.60
2022-08-23T12:36:58.854Z,90.80
2022-08-23T12:39:36.060Z,90.90
2022-08-23T12:42:17.516Z,90.90
2022-08-23T12:44:47.505Z,90.90
2022-08-23T12:47:21.116Z,91.10
2022-08-23T12:50:10.271Z,91.10
2022-08-23T12:52:38.428Z,91.20
2022-08-23T12:55:19.487Z,91.30
2022-08-23T12:57:56.347Z,91.40
2022-08-23T13:00:38.232Z,91.50
2022-08-23T13:03:13.446Z,91.30
2022-08-23T13:05:56.616Z,91.20
2022-08-23T13:09:14.149Z,91.10
2022-08-23T13:11:43.397Z,91.10
2022-08-23T13:14:37.111Z,91.10
2022-08-23T13:17:25.046Z,90.90
2022-08-23T13:20:10.705Z,91.00
2022-08-23T13:23:00.519Z,91.10
2022-08-23T13:25:35.065Z,91.00
2022-08-23T13:28:26.460Z,91.00
2022-08-23T13:31:08.459Z,90.90
2022-08-23T13:33:36.508Z,91.20
2022-08-23T13:36:14.082Z,91.20
2022-08-23T13:38:42.455Z,91.10
2022-08-23T13:41:25.718Z,91.20
2022-08-23T13:43:52.869Z,91.00
2022-08-23T13:46:32.682Z,91.10
2022-08-23T13:49:10.689Z,91.00
2022-08-23T13:52:33.496Z,91.10
2022-08-23T13:54:53.067Z,91.10
2022-08-23T13:57:21.572Z,91.10
2022-08-23T13:59:54.382Z,91.00
2022-08-23T14:02:23.829Z,90.80
2022-08-23T14:04:51.579Z,90.70
2022-08-23T14:07:19.301Z,90.80
2022-08-23T14:09:46.452Z,90.60
2022-08-23T14:12:18.669Z,90.70
2022-08-23T14:14:46.499Z,90.70
2022-08-23T14:17:16.497Z,90.80
2022-08-23T14:22:35.688Z,90.90
2022-08-23T14:25:03.010Z,91.00
2022-08-23T14:27:30.612Z,91.00
2022-08-23T14:29:58.165Z,91.10
2022-08-23T14:32:25.618Z,91.00
2022-08-23T14:34:52.729Z,91.00
2022-08-23T14:38:00.855Z,90.90
2022-08-23T14:40:09.442Z,90.70
2022-08-23T14:42:36.750Z,90.60
2022-08-23T14:45:05.452Z,90.60
2022-08-23T14:47:35.468Z,90.60
2022-08-23T14:50:06.565Z,90.60
2022-08-23T14:52:41.647Z,90.60
2022-08-23T14:55:09.668Z,90.60
2022-08-23T14:57:36.780Z,90.60
2022-08-23T15:00:08.774Z,90.60
2022-08-23T15:02:36.923Z,90.50
2022-08-23T15:05:04.594Z,90.70
2022-08-23T15:07:32.021Z,90.70
2022-08-23T15:09:59.358Z,90.70
2022-08-23T15:15:22.023Z,90.70
2022-08-23T15:17:58.847Z,90.70
2022-08-23T15:20:31.904Z,90.50
2022-08-23T15:23:00.436Z,90.60
2022-08-23T15:25:32.007Z,90.60
2022-08-23T15:28:01.911Z,90.50
2022-08-23T15:30:30.383Z,90.60
2022-08-23T15:33:00.975Z,90.50
2022-08-23T15:35:29.986Z,90.60
2022-08-23T15:37:57.409Z,90.80
2022-08-23T15:40:26.018Z,90.90
2022-08-23T15:42:53.694Z,90.60
2022-08-23T15:45:21.127Z,90.70
2022-08-23T15:47:56.042Z,90.60
2022-08-23T15:50:27.400Z,90.50
2022-08-23T15:52:55.198Z,90.50
2022-08-23T15:55:22.877Z,90.50
2022-08-23T15:57:52.949Z,90.50
2022-08-23T16:00:23.133Z,90.50
2022-08-23T16:03:18.880Z,90.50
2022-08-23T16:05:42.861Z,90.50
2022-08-23T16:08:20.054Z,90.50
2022-08-23T16:10:47.173Z,90.40
2022-08-23T16:13:14.646Z,90.40
2022-08-23T16:15:41.607Z,90.40
2022-08-23T16:18:08.765Z,90.30
2022-08-23T16:20:36.409Z,90.30
2022-08-23T16:23:04.378Z,90.30
2022-08-23T16:25:31.667Z,90.30
2022-08-23T16:27:58.907Z,90.30
2022-08-23T16:30:26.179Z,90.40
2022-08-23T16:32:53.208Z,90.40
2022-08-23T16:35:20.573Z,90.40
2022-08-23T16:37:47.539Z,90.50
2022-08-23T16:40:15.193Z,90.50
2022-08-23T16:42:42.657Z,90.50
2022-08-23T16:45:12.103Z,90.50
2022-08-23T16:47:44.936Z,90.50
2022-08-23T16:50:13.396Z,90.50
2022-08-23T16:52:41.377Z,90.50
2022-08-23T16:55:11.557Z,90.50
2022-08-23T16:57:40.341Z,90.40
2022-08-23T17:00:13.818Z,90.40
2022-08-23T17:02:43.190Z,90.40
2022-08-23T17:05:15.709Z,90.30
2022-08-23T17:07:43.143Z,90.20
2022-08-23T17:10:13.461Z,90.30
2022-08-23T17:12:47.215Z,90.30
2022-08-23T17:15:18.964Z,90.30
2022-08-23T17:17:48.524Z,90.30
2022-08-23T17:20:18.882Z,90.30
2022-08-23T17:22:47.218Z,90.30
2022-08-23T17:25:15.380Z,90.30
2022-08-23T17:27:46.363Z,90.30
2022-08-23T17:30:17.683Z,90.30
2022-08-23T17:32:47.941Z,90.30
2022-08-23T17:35:20.029Z,90.40
2022-08-23T17:37:47.118Z,90.40
2022-08-23T17:40:27.735Z,90.40
2022-08-23T17:42:56.817Z,90.40
2022-08-23T17:45:24.173Z,90.40
2022-08-23T17:47:51.486Z,90.40
2022-08-23T17:50:19.816Z,90.40
2022-08-23T17:52:47.134Z,90.30
2022-08-23T17:55:18.448Z,90.30
2022-08-23T17:57:48.393Z,90.40
2022-08-23T18:00:18.904Z,90.30
2022-08-23T18:02:46.217Z,90.30
2022-08-23T18:05:13.728Z,90.30
2022-08-23T18:07:40.917Z,90.30
2022-08-23T18:10:11.911Z,90.30
2022-08-23T18:12:40.924Z,90.30
2022-08-23T18:15:09.413Z,90.40
2022-08-23T18:17:39.037Z,90.30
2022-08-23T18:20:10.117Z,90.40
2022-08-23T18:22:37.734Z,90.40
2022-08-23T18:25:10.879Z,90.40
2022-08-23T18:27:57.009Z,90.30
2022-08-23T18:30:24.723Z,90.30
2022-08-23T18:32:52.039Z,90.30
2022-08-23T18:35:20.343Z,90.30
2022-08-23T18:37:47.473Z,90.30
2022-08-23T18:40:15.317Z,90.30
2022-08-23T18:42:42.353Z,90.30
2022-08-23T18:45:10.364Z,90.20
2022-08-23T18:47:38.011Z,90.30
2022-08-23T18:50:08.746Z,90.30
2022-08-23T18:52:36.134Z,90.30
2022-08-23T18:55:05.182Z,90.20
2022-08-23T18:57:33.412Z,90.20
2022-08-23T19:00:00.966Z,90.20
2022-08-23T19:02:28.828Z,90.20
2022-08-23T19:04:56.286Z,90.20
2022-08-23T19:07:23.422Z,90.20
2022-08-23T19:09:51.066Z,90.30
2022-08-23T19:12:18.368Z,90.30
2022-08-23T19:14:46.170Z,90.40
2022-08-23T19:17:14.045Z,90.40
2022-08-23T19:19:41.041Z,90.40
2022-08-23T19:22:11.051Z,90.70
2022-08-23T19:24:38.633Z,90.50
2022-08-23T19:27:07.788Z,90.40
2022-08-23T19:29:36.106Z,90.40
2022-08-23T19:32:04.011Z,90.40
2022-08-23T19:34:31.269Z,90.30
2022-08-23T19:37:01.281Z,90.40
2022-08-23T19:39:29.746Z,90.40
2022-08-23T19:41:57.537Z,90.30
2022-08-23T19:44:24.760Z,90.40
2022-08-23T19:46:52.320Z,90.40
2022-08-23T19:49:19.620Z,90.30
2022-08-23T19:51:46.658Z,90.30
2022-08-23T19:54:13.716Z,90.30
2022-08-23T19:56:48.581Z,90.30
2022-08-23T19:59:34.856Z,90.40
2022-08-23T20:02:03.073Z,90.30
2022-08-23T20:04:33.081Z,90.30
2022-08-23T20:07:03.209Z,90.30
2022-08-23T20:09:33.225Z,90.30
2022-08-23T20:12:01.067Z,90.20
2022-08-23T20:14:30.950Z,90.20
2022-08-23T20:16:58.052Z,90.20
2022-08-23T20:19:25.845Z,90.20
2022-08-23T20:22:16.202Z,90.20
2022-08-23T20:24:51.755Z,90.20
2022-08-23T20:27:30.918Z,90.20
2022-08-23T20:30:04.344Z,90.20
2022-08-23T20:32:32.364Z,90.10
2022-08-23T20:35:01.285Z,90.10
2022-08-23T20:37:28.900Z,90.00
2022-08-23T20:39:55.999Z,90.00
2022-08-23T20:42:23.554Z,90.00
2022-08-23T20:44:50.644Z,90.00
2022-08-23T20:47:18.278Z,90.10
2022-08-23T20:49:45.673Z,90.10
2022-08-23T20:52:13.084Z,90.10
2022-08-23T20:54:40.435Z,90.10
2022-08-23T20:57:07.718Z,90.10
2022-08-23T20:59:34.884Z,90.20
2022-08-23T21:02:02.215Z,90.20
2022-08-23T21:04:30.164Z,90.20
2022-08-23T21:06:57.866Z,90.20
2022-08-23T21:09:29.376Z,90.10
2022-08-23T21:11:57.523Z,90.20
2022-08-23T21:14:24.896Z,90.20
2022-08-23T21:16:52.384Z,90.10
2022-08-23T21:19:19.851Z,90.10
2022-08-23T21:21:47.493Z,90.10
2022-08-23T21:24:15.226Z,90.10
2022-08-23T21:26:42.981Z,90.20
2022-08-23T21:29:11.283Z,90.20
2022-08-23T21:31:39.128Z,90.10
2022-08-23T21:34:08.345Z,90.10
2022-08-23T21:36:36.289Z,90.10
2022-08-23T21:39:04.712Z,90.10
2022-08-23T21:41:40.917Z,90.10
2022-08-23T21:44:14.456Z,90.00
2022-08-23T21:46:43.617Z,90.00
2022-08-23T21:49:12.483Z,90.10
2022-08-23T21:51:40.994Z,90.10
2022-08-23T21:54:10.641Z,90.00
2022-08-23T21:56:39.259Z,90.00
2022-08-23T21:59:09.612Z,90.00
2022-08-23T22:01:37.359Z,90.00
2022-08-23T22:04:08.070Z,90.00
2022-08-23T22:06:37.976Z,90.00
2022-08-23T22:09:09.022Z,90.00
2022-08-23T22:11:41.682Z,90.00
2022-08-23T22:14:18.475Z,90.00
2022-08-23T22:16:45.944Z,90.00
2022-08-23T22:19:15.212Z,90.00
2022-08-23T22:21:48.289Z,90.00
2022-08-23T22:24:16.453Z,90.00
2022-08-23T22:26:44.336Z,90.00
2022-08-23T22:29:12.955Z,90.00
2022-08-23T22:31:41.664Z,90.00
2022-08-23T22:34:12.360Z,90.00
2022-08-23T22:36:40.097Z,90.00
2022-08-23T22:39:07.851Z,89.90
2022-08-23T22:41:35.536Z,89.90
2022-08-23T22:44:03.800Z,89.80
2022-08-23T22:46:33.952Z,89.90
2022-08-23T22:49:01.739Z,89.80
2022-08-23T22:51:32.437Z,89.80
2022-08-23T22:54:07.000Z,89.90
2022-08-23T22:56:50.627Z,89.90
2022-08-23T22:59:22.311Z,89.90
2022-08-23T23:01:57.723Z,90.00
2022-08-23T23:04:26.596Z,89.90
2022-08-23T23:06:55.357Z,89.90
2022-08-23T23:09:22.757Z,89.90
2022-08-23T23:11:52.625Z,89.90
2022-08-23T23:14:21.396Z,90.20
2022-08-23T23:16:50.034Z,89.70
2022-08-23T23:19:36.483Z,89.80
2022-08-23T23:22:04.388Z,89.70
2022-08-23T23:24:36.280Z,89.70
2022-08-23T23:27:05.315Z,89.60
2022-08-23T23:29:32.543Z,89.70
2022-08-23T23:32:00.401Z,89.70
2022-08-23T23:34:28.305Z,89.70
2022-08-23T23:36:59.423Z,89.70
2022-08-23T23:39:27.620Z,89.70
2022-08-23T23:41:55.044Z,89.70
2022-08-23T23:44:24.309Z,89.70
2022-08-23T23:46:59.904Z,89.70
2022-08-23T23:49:32.190Z,89.80
2022-08-23T23:52:03.415Z,89.70
2022-08-23T23:54:31.533Z,90.00
2022-08-23T23:56:58.929Z,89.70
2022-08-23T23:59:26.453Z,89.70
